Time;durP1;ratioP1;P1;durP2;ratioP2;P2;SDS_P1;SDS_P2;PMS_P1;PMS_P2;Temp;Humidity;BMP_temperature;BMP_pressure;BME280_temperature;BME280_humidity;BME280_pressure;Samples;Min_cycle;Max_cycle;Signal;HPM_P1;HPM_P2
2023/05/05 00:00:19;;;;;;;1.47;1.37;;;11.30;96.50;;;;;;5051362;28;20593;-84
2023/05/05 00:02:45;;;;;;;2.93;2.57;;;11.10;96.80;;;;;;5052856;28;20970;-84
2023/05/05 00:05:11;;;;;;;1.93;1.83;;;11.10;97.10;;;;;;5052822;28;20415;-84
2023/05/05 00:07:36;;;;;;;1.37;1.27;;;11.00;97.10;;;;;;5051584;28;20214;-85
2023/05/05 00:10:02;;;;;;;2.67;2.50;;;10.90;97.30;;;;;;5059649;28;20287;-85
2023/05/05 00:12:28;;;;;;;3.53;2.43;;;10.80;97.30;;;;;;5051260;28;20200;-84
2023/05/05 00:14:53;;;;;;;1.83;1.60;;;10.70;97.30;;;;;;5050312;28;20171;-85
2023/05/05 00:17:19;;;;;;;2.87;2.37;;;10.60;97.30;;;;;;5050515;28;20184;-85
2023/05/05 00:19:44;;;;;;;1.43;1.33;;;10.50;97.30;;;;;;5051370;28;20242;-84
2023/05/05 00:22:10;;;;;;;2.20;2.00;;;10.40;97.30;;;;;;5051558;28;20199;-85
2023/05/05 00:24:36;;;;;;;2.50;2.07;;;10.30;97.30;;;;;;5057023;28;20602;-85
2023/05/05 00:27:02;;;;;;;5.00;2.03;;;10.30;97.30;;;;;;5051139;28;20469;-86
2023/05/05 00:29:27;;;;;;;2.00;1.90;;;10.20;97.30;;;;;;5051636;28;20184;-84
2023/05/05 00:31:53;;;;;;;4.00;2.10;;;10.20;97.30;;;;;;5059051;28;20592;-87
2023/05/05 00:34:19;;;;;;;2.20;1.70;;;10.10;97.30;;;;;;5048558;28;20170;-84
2023/05/05 00:36:44;;;;;;;2.27;2.07;;;10.10;97.30;;;;;;5054316;28;20263;-84
2023/05/05 00:39:09;;;;;;;1.70;1.60;;;10.00;97.30;;;;;;5053108;28;20270;-85
2023/05/05 00:41:35;;;;;;;1.97;1.87;;;10.00;97.30;;;;;;5058432;28;20203;-87
2023/05/05 00:44:01;;;;;;;3.13;2.30;;;9.90;97.30;;;;;;5075931;28;20191;-88
2023/05/05 00:46:29;;;;;;;5.60;2.40;;;9.90;97.30;;;;;;5076213;28;20291;-89
2023/05/05 00:48:56;;;;;;;2.20;2.03;;;9.80;97.30;;;;;;5076381;28;20227;-88
2023/05/05 00:51:23;;;;;;;5.70;3.37;;;9.80;97.30;;;;;;5077137;28;20433;-89
2023/05/05 00:53:49;;;;;;;1.70;1.60;;;9.80;97.30;;;;;;5076330;28;20529;-89
2023/05/05 00:56:16;;;;;;;3.53;3.33;;;9.70;97.30;;;;;;5085177;28;20434;-88
2023/05/05 00:58:42;;;;;;;1.83;1.30;;;9.70;97.30;;;;;;5076042;28;20448;-88
2023/05/05 01:01:09;;;;;;;2.27;2.07;;;9.70;97.30;;;;;;5085845;28;20425;-87
2023/05/05 01:03:36;;;;;;;2.20;2.07;;;9.70;97.30;;;;;;5076674;28;20418;-86
2023/05/05 01:06:20;;;;;;;2.07;1.83;;;9.60;97.30;;;;;;5076157;28;20477;-89
2023/05/05 01:09:03;;;;;;;3.37;3.17;;;9.60;97.30;;;;;;5075795;28;20418;-85
2023/05/05 01:11:58;;;;;;;1.73;1.63;;;9.50;97.30;;;;;;5077203;28;20438;-89
2023/05/05 01:14:42;;;;;;;1.80;1.70;;;9.50;97.30;;;;;;5065718;28;20452;-87
2023/05/05 01:17:19;;;;;;;3.53;2.23;;;9.40;97.30;;;;;;5074835;28;20414;-88
2023/05/05 01:20:07;;;;;;;2.87;2.03;;;9.40;97.30;;;;;;5055400;28;20441;-85
2023/05/05 01:22:44;;;;;;;2.27;1.90;;;9.30;97.30;;;;;;5050289;28;20511;-84
2023/05/05 01:25:29;;;;;;;3.93;3.27;;;9.30;97.30;;;;;;5060407;28;20437;-85
2023/05/05 01:28:06;;;;;;;3.87;2.17;;;9.20;97.30;;;;;;5061876;28;20424;-84
2023/05/05 01:31:02;;;;;;;3.67;2.90;;;9.20;97.30;;;;;;5044506;28;20406;-84
2023/05/05 01:33:34;;;;;;;17.63;3.83;;;9.20;97.30;;;;;;5041246;28;20484;-85
2023/05/05 01:36:09;;;;;;;2.17;2.00;;;9.10;97.30;;;;;;5048483;28;20434;-84
2023/05/05 01:38:39;;;;;;;6.20;2.40;;;9.10;97.30;;;;;;5055107;28;20562;-85
2023/05/05 01:41:18;;;;;;;1.77;1.70;;;9.00;97.30;;;;;;5061448;28;20476;-84
2023/05/05 01:43:46;;;;;;;2.53;2.33;;;8.90;97.30;;;;;;5054435;28;20524;-85
2023/05/05 01:46:13;;;;;;;2.73;2.30;;;8.90;97.30;;;;;;5059038;28;20457;-84
2023/05/05 01:48:40;;;;;;;3.00;2.40;;;8.90;97.30;;;;;;5055475;28;20482;-85
2023/05/05 01:51:07;;;;;;;4.97;3.53;;;8.80;97.30;;;;;;5052909;28;20438;-84
2023/05/05 01:53:35;;;;;;;3.33;3.13;;;8.80;97.30;;;;;;5049492;28;20483;-86
2023/05/05 01:56:01;;;;;;;1.80;1.73;;;8.80;97.30;;;;;;5050942;28;20426;-85
2023/05/05 01:58:28;;;;;;;4.50;2.93;;;8.80;97.30;;;;;;5061899;28;20428;-85
2023/05/05 02:00:56;;;;;;;2.43;2.23;;;8.80;97.30;;;;;;5053349;28;20446;-85
2023/05/05 02:03:23;;;;;;;4.83;2.00;;;8.80;97.30;;;;;;5052693;28;20445;-85
2023/05/05 02:05:50;;;;;;;2.50;1.97;;;8.80;97.30;;;;;;5060954;28;20460;-84
2023/05/05 02:08:16;;;;;;;2.97;2.77;;;8.70;97.30;;;;;;5050402;28;20579;-85
2023/05/05 02:10:43;;;;;;;2.43;2.27;;;8.70;97.30;;;;;;5049445;28;20828;-85
2023/05/05 02:13:11;;;;;;;3.37;2.60;;;8.70;97.30;;;;;;5059392;28;20490;-84
2023/05/05 02:15:38;;;;;;;3.90;2.43;;;8.70;97.30;;;;;;5049287;28;20798;-85
2023/05/05 02:18:05;;;;;;;4.73;3.53;;;8.60;97.30;;;;;;5058640;28;20445;-84
2023/05/05 02:20:32;;;;;;;2.03;1.63;;;8.60;97.30;;;;;;5050953;28;20418;-85
2023/05/05 02:22:57;;;;;;;3.10;2.40;;;8.60;97.30;;;;;;5050509;28;20434;-86
2023/05/05 02:25:28;;;;;;;3.50;2.90;;;8.50;97.30;;;;;;5059679;28;20424;-84
2023/05/05 02:27:57;;;;;;;1.90;1.57;;;8.40;97.30;;;;;;5051706;28;20190;-84
2023/05/05 02:30:24;;;;;;;4.33;2.70;;;8.40;97.30;;;;;;5056148;28;20413;-84
2023/05/05 02:32:54;;;;;;;3.10;2.23;;;8.40;97.30;;;;;;5066320;28;20512;-84
2023/05/05 02:35:23;;;;;;;2.27;2.10;;;8.30;97.30;;;;;;5057385;28;20418;-84
2023/05/05 02:38:03;;;;;;;3.33;2.03;;;8.30;97.30;;;;;;5050286;28;20423;-84
2023/05/05 02:40:31;;;;;;;7.40;2.90;;;8.30;97.30;;;;;;5043626;28;20524;-84
2023/05/05 02:43:00;;;;;;;3.37;2.57;;;8.20;97.30;;;;;;5049500;28;20430;-85
2023/05/05 02:45:27;;;;;;;2.60;1.87;;;8.20;97.30;;;;;;5049327;28;20557;-83
2023/05/05 02:47:52;;;;;;;2.20;2.03;;;8.20;97.30;;;;;;5056790;28;20470;-84
2023/05/05 02:50:18;;;;;;;3.60;3.47;;;8.10;97.30;;;;;;5050204;28;20432;-84
2023/05/05 02:52:44;;;;;;;6.60;4.00;;;8.10;97.30;;;;;;5049056;28;20265;-84
2023/05/05 02:55:10;;;;;;;1.87;1.60;;;8.00;97.30;;;;;;5049512;28;20180;-84
2023/05/05 02:57:59;;;;;;;5.97;2.37;;;8.00;97.30;;;;;;5061046;28;20420;-84
2023/05/05 03:00:39;;;;;;;2.23;2.03;;;8.00;97.30;;;;;;5051861;28;20429;-84
2023/05/05 03:03:31;;;;;;;6.90;3.00;;;8.00;97.30;;;;;;5052489;28;20984;-86
2023/05/05 03:06:08;;;;;;;1.73;1.60;;;8.00;97.30;;;;;;5052789;28;20469;-84
2023/05/05 03:08:42;;;;;;;3.93;2.50;;;8.00;97.30;;;;;;5055028;28;20402;-84
2023/05/05 03:11:17;;;;;;;8.13;2.33;;;7.90;97.30;;;;;;5060732;28;20505;-85
2023/05/05 03:13:46;;;;;;;5.00;3.00;;;7.90;97.30;;;;;;5052179;28;20417;-84
2023/05/05 03:16:14;;;;;;;2.77;2.57;;;7.90;97.30;;;;;;5060937;28;20421;-86
2023/05/05 03:18:41;;;;;;;2.97;2.70;;;7.90;97.30;;;;;;5053671;28;20465;-84
2023/05/05 03:21:07;;;;;;;5.07;3.37;;;7.90;97.30;;;;;;5052323;28;20417;-84
2023/05/05 03:23:34;;;;;;;5.37;2.30;;;7.90;97.30;;;;;;5052184;28;20471;-85
2023/05/05 03:25:59;;;;;;;8.67;3.90;;;7.90;97.30;;;;;;5052241;28;20477;-84
2023/05/05 03:28:25;;;;;;;2.10;1.90;;;7.90;97.30;;;;;;5052171;28;20426;-84
2023/05/05 03:30:52;;;;;;;3.70;3.07;;;7.90;97.30;;;;;;5059018;28;20666;-84
2023/05/05 03:33:17;;;;;;;2.50;2.30;;;7.90;97.30;;;;;;5053431;28;20799;-84
2023/05/05 03:35:42;;;;;;;3.63;3.00;;;7.90;97.30;;;;;;5053261;28;20568;-85
2023/05/05 03:38:08;;;;;;;8.10;3.63;;;7.90;97.30;;;;;;5052279;28;20176;-84
2023/05/05 03:40:33;;;;;;;2.50;2.30;;;7.90;97.30;;;;;;5056357;28;20630;-84
2023/05/05 03:42:59;;;;;;;2.43;2.27;;;7.90;97.30;;;;;;5063869;28;20488;-84
2023/05/05 03:45:25;;;;;;;6.93;3.47;;;7.80;97.30;;;;;;5053958;28;20182;-85
2023/05/05 03:47:50;;;;;;;5.07;2.30;;;7.80;97.30;;;;;;5051769;28;20554;-84
2023/05/05 03:50:16;;;;;;;2.43;2.23;;;7.80;97.30;;;;;;5053032;28;20642;-84
2023/05/05 03:52:41;;;;;;;3.97;2.77;;;7.80;97.30;;;;;;5056167;28;20196;-85
2023/05/05 03:55:07;;;;;;;3.20;1.90;;;7.80;97.30;;;;;;5062828;28;20283;-84
2023/05/05 03:57:33;;;;;;;6.67;3.47;;;7.80;97.30;;;;;;5051936;28;20192;-84
2023/05/05 03:59:59;;;;;;;2.00;1.60;;;7.80;97.30;;;;;;5051585;28;20191;-84
2023/05/05 04:02:24;;;;;;;2.07;1.93;;;7.80;97.30;;;;;;5052712;28;20206;-84
2023/05/05 04:04:50;;;;;;;5.37;2.80;;;7.80;97.30;;;;;;5051474;28;20526;-85
2023/05/05 04:07:15;;;;;;;1.80;1.70;;;7.80;97.30;;;;;;5052036;28;20192;-84
2023/05/05 04:09:43;;;;;;;1.57;1.50;;;7.80;97.30;;;;;;5057383;28;20382;-84
2023/05/05 04:12:12;;;;;;;2.80;2.00;;;7.80;97.30;;;;;;5051905;28;20196;-85
2023/05/05 04:14:38;;;;;;;4.50;3.60;;;7.70;97.30;;;;;;5047097;28;20419;-85
2023/05/05 04:17:03;;;;;;;1.90;1.83;;;7.70;97.30;;;;;;5046485;28;20799;-84
2023/05/05 04:19:32;;;;;;;15.33;3.07;;;7.70;97.30;;;;;;5047548;28;20188;-84
2023/05/05 04:21:58;;;;;;;2.20;2.00;;;7.70;97.30;;;;;;5042395;28;20249;-85
2023/05/05 04:24:24;;;;;;;5.63;3.17;;;7.80;97.30;;;;;;5049465;28;20449;-84
2023/05/05 04:26:51;;;;;;;2.30;2.10;;;7.70;97.30;;;;;;5045816;28;20478;-85
2023/05/05 04:29:17;;;;;;;2.00;1.90;;;7.80;97.30;;;;;;5049591;28;20460;-82
2023/05/05 04:31:42;;;;;;;4.13;2.10;;;7.80;97.30;;;;;;5049818;28;20525;-84
2023/05/05 04:34:08;;;;;;;3.10;2.90;;;7.80;97.30;;;;;;5046147;28;20804;-84
2023/05/05 04:36:33;;;;;;;10.00;2.57;;;7.80;97.30;;;;;;5048101;28;20421;-84
2023/05/05 04:38:59;;;;;;;2.43;2.23;;;7.90;97.30;;;;;;5046159;28;20242;-84
2023/05/05 04:41:25;;;;;;;2.90;2.57;;;7.90;97.30;;;;;;5061696;28;20716;-85
2023/05/05 04:43:51;;;;;;;3.90;3.67;;;7.90;97.30;;;;;;5057203;28;20186;-85
2023/05/05 04:46:17;;;;;;;4.17;2.30;;;8.00;97.30;;;;;;5052926;28;20587;-85
2023/05/05 04:48:42;;;;;;;12.50;2.90;;;8.00;97.30;;;;;;5056255;28;20420;-84
2023/05/05 04:51:08;;;;;;;1.83;1.70;;;8.10;97.30;;;;;;5071573;28;20175;-85
2023/05/05 04:53:33;;;;;;;6.30;3.90;;;8.20;97.30;;;;;;5046690;28;20550;-84
2023/05/05 04:56:00;;;;;;;3.37;2.53;;;8.30;97.30;;;;;;5051071;28;20275;-84
2023/05/05 04:58:25;;;;;;;3.30;3.10;;;8.40;97.30;;;;;;5050875;28;20183;-85
2023/05/05 05:00:51;;;;;;;4.53;3.30;;;8.40;97.30;;;;;;5043761;28;20445;-84
2023/05/05 05:03:16;;;;;;;3.93;3.10;;;8.50;97.30;;;;;;5050770;28;20199;-84
2023/05/05 05:05:41;;;;;;;1.73;1.67;;;8.60;97.30;;;;;;5050656;28;20191;-85
2023/05/05 05:08:07;;;;;;;6.80;3.20;;;8.60;97.30;;;;;;5058982;28;20262;-83
2023/05/05 05:10:33;;;;;;;6.57;4.10;;;8.70;97.30;;;;;;5067062;28;20180;-85
2023/05/05 05:12:59;;;;;;;3.67;3.50;;;8.80;97.30;;;;;;5067349;28;20585;-84
2023/05/05 05:15:24;;;;;;;4.30;3.00;;;8.90;97.30;;;;;;5050631;28;20459;-85
2023/05/05 05:17:50;;;;;;;3.47;2.03;;;9.00;97.30;;;;;;5049995;28;20187;-86
2023/05/05 05:20:16;;;;;;;2.57;2.27;;;9.10;97.30;;;;;;5059389;28;20328;-84
2023/05/05 05:22:41;;;;;;;4.80;2.50;;;9.20;97.30;;;;;;5056954;28;20203;-84
2023/05/05 05:25:07;;;;;;;4.10;2.70;;;9.30;97.30;;;;;;5058848;28;20186;-84
2023/05/05 05:27:32;;;;;;;3.80;3.60;;;9.40;97.30;;;;;;5050599;28;20214;-85
2023/05/05 05:29:58;;;;;;;2.87;2.60;;;9.50;97.30;;;;;;5050740;28;20557;-85
2023/05/05 05:32:23;;;;;;;3.20;2.60;;;9.60;97.30;;;;;;5055603;28;20238;-84
2023/05/05 05:34:49;;;;;;;3.20;3.00;;;9.70;97.30;;;;;;5055782;28;20175;-84
2023/05/05 05:37:14;;;;;;;5.50;2.43;;;9.90;97.30;;;;;;5050289;28;20736;-85
2023/05/05 05:39:40;;;;;;;7.27;3.37;;;10.00;97.30;;;;;;5050323;28;20179;-85
2023/05/05 05:42:05;;;;;;;4.37;2.30;;;10.10;97.30;;;;;;5050257;28;20287;-84
2023/05/05 05:44:31;;;;;;;5.33;3.97;;;10.20;97.30;;;;;;5058288;28;20183;-85
2023/05/05 05:46:57;;;;;;;2.73;2.47;;;10.40;97.30;;;;;;5050050;28;20216;-84
2023/05/05 05:49:23;;;;;;;6.10;3.10;;;10.50;97.30;;;;;;5050245;28;20214;-85
2023/05/05 05:51:49;;;;;;;5.50;3.70;;;10.70;97.30;;;;;;5050336;28;20438;-85
2023/05/05 05:54:14;;;;;;;2.30;1.53;;;10.80;97.30;;;;;;5050683;28;20249;-84
2023/05/05 05:56:40;;;;;;;3.33;2.53;;;11.00;97.30;;;;;;5051499;28;20219;-85
2023/05/05 05:59:08;;;;;;;1.83;1.80;;;11.10;97.30;;;;;;5050210;28;20410;-84
2023/05/05 06:01:34;;;;;;;4.37;2.60;;;11.30;97.30;;;;;;5059957;28;20227;-85
2023/05/05 06:04:00;;;;;;;6.67;2.00;;;11.40;97.30;;;;;;5059210;28;20492;-88
2023/05/05 06:06:26;;;;;;;2.60;2.17;;;11.60;97.30;;;;;;5066941;28;20222;-85
2023/05/05 06:08:52;;;;;;;2.70;2.50;;;11.70;97.30;;;;;;5056364;28;20434;-85
2023/05/05 06:11:17;;;;;;;2.30;2.10;;;11.80;97.30;;;;;;5049751;28;20430;-85
2023/05/05 06:13:43;;;;;;;3.13;2.93;;;12.00;97.30;;;;;;5049419;28;20630;-84
2023/05/05 06:16:08;;;;;;;3.23;2.30;;;12.10;97.30;;;;;;5049181;28;20180;-85
2023/05/05 06:18:34;;;;;;;4.40;2.03;;;12.30;96.60;;;;;;5053052;28;20214;-85
2023/05/05 06:21:00;;;;;;;2.90;2.13;;;12.40;96.70;;;;;;5053706;28;20262;-85
2023/05/05 06:23:26;;;;;;;2.50;2.30;;;12.60;97.00;;;;;;5048095;28;20287;-85
2023/05/05 06:25:53;;;;;;;1.80;1.70;;;12.70;96.30;;;;;;5048136;28;20592;-85
2023/05/05 06:28:19;;;;;;;4.53;2.87;;;12.80;95.50;;;;;;5048310;28;20243;-85
2023/05/05 06:30:44;;;;;;;1.87;1.77;;;12.90;95.20;;;;;;5051196;28;20505;-84
2023/05/05 06:33:10;;;;;;;2.63;1.63;;;13.10;94.70;;;;;;5053086;28;20234;-85
2023/05/05 06:35:35;;;;;;;1.90;1.70;;;13.20;94.20;;;;;;5044907;28;20183;-85
2023/05/05 06:38:00;;;;;;;3.00;2.80;;;13.30;94.00;;;;;;5053133;28;20203;-85
2023/05/05 06:40:26;;;;;;;1.47;1.20;;;13.50;93.50;;;;;;5052582;28;20242;-85
2023/05/05 06:42:51;;;;;;;3.67;2.60;;;13.60;92.90;;;;;;5052290;28;20673;-85
2023/05/05 06:45:17;;;;;;;3.47;2.40;;;13.80;93.10;;;;;;5052184;28;20180;-84
2023/05/05 06:47:43;;;;;;;2.77;2.43;;;13.90;93.00;;;;;;5056819;28;20369;-84
2023/05/05 06:50:08;;;;;;;4.80;1.50;;;14.10;92.40;;;;;;5064315;28;20175;-84
2023/05/05 06:52:34;;;;;;;2.67;2.40;;;14.20;91.50;;;;;;5052434;28;20208;-84
2023/05/05 06:55:00;;;;;;;4.00;3.40;;;14.40;91.50;;;;;;5052600;28;20266;-85
2023/05/05 06:57:25;;;;;;;4.53;2.27;;;14.50;90.90;;;;;;5069103;28;20563;-84
2023/05/05 06:59:51;;;;;;;12.67;3.60;;;14.60;90.30;;;;;;5053895;28;20183;-85
2023/05/05 07:02:17;;;;;;;3.23;2.30;;;14.80;90.10;;;;;;5050268;28;20208;-84
2023/05/05 07:04:43;;;;;;;2.47;2.27;;;15.00;89.80;;;;;;5052612;28;20426;-84
2023/05/05 07:07:08;;;;;;;2.00;1.90;;;15.10;90.10;;;;;;5052834;28;20234;-85
2023/05/05 07:09:34;;;;;;;1.70;1.60;;;15.30;90.00;;;;;;5052420;28;20461;-84
2023/05/05 07:11:59;;;;;;;2.30;2.10;;;15.40;89.70;;;;;;5052693;28;20546;-85
2023/05/05 07:14:25;;;;;;;1.53;1.43;;;15.60;89.60;;;;;;5052341;28;20204;-84
2023/05/05 07:16:50;;;;;;;2.30;1.90;;;15.70;89.20;;;;;;5052680;28;20536;-84
2023/05/05 07:19:16;;;;;;;1.83;1.73;;;15.90;89.10;;;;;;5052477;28;20337;-84
2023/05/05 07:21:41;;;;;;;2.20;2.03;;;16.10;88.50;;;;;;5060481;28;20919;-84
2023/05/05 07:24:07;;;;;;;6.23;2.63;;;16.20;88.10;;;;;;5052855;28;20429;-84
2023/05/05 07:26:33;;;;;;;2.40;2.00;;;16.30;86.30;;;;;;5052437;28;20554;-84
2023/05/05 07:28:58;;;;;;;3.33;2.30;;;16.40;86.20;;;;;;5052276;28;20207;-85
2023/05/05 07:31:25;;;;;;;3.97;2.00;;;16.50;86.30;;;;;;5051938;28;20222;-84
2023/05/05 07:33:50;;;;;;;3.17;2.23;;;16.70;86.30;;;;;;5057404;28;20243;-85
2023/05/05 07:36:17;;;;;;;1.90;1.80;;;16.80;85.20;;;;;;5049279;28;20875;-85
2023/05/05 07:38:43;;;;;;;3.63;2.20;;;17.00;86.00;;;;;;5060539;28;20184;-84
2023/05/05 07:41:10;;;;;;;1.37;1.37;;;17.20;84.80;;;;;;5051674;28;20777;-85
2023/05/05 07:43:36;;;;;;;1.50;1.40;;;17.40;85.60;;;;;;5051540;28;20268;-84
2023/05/05 07:46:02;;;;;;;6.13;1.80;;;17.60;84.80;;;;;;5052305;28;21050;-84
2023/05/05 07:48:28;;;;;;;1.47;1.40;;;17.70;84.50;;;;;;5052346;28;20555;-85
2023/05/05 07:50:54;;;;;;;2.60;1.60;;;18.00;83.50;;;;;;5052278;28;20501;-85
2023/05/05 07:53:20;;;;;;;1.53;1.43;;;18.20;84.20;;;;;;5051780;28;20576;-84
2023/05/05 07:55:45;;;;;;;10.43;2.73;;;18.30;83.70;;;;;;5056902;28;20167;-84
2023/05/05 07:58:11;;;;;;;12.77;2.37;;;18.40;81.70;;;;;;5054549;28;20348;-84
2023/05/05 08:00:37;;;;;;;3.33;1.80;;;18.50;81.70;;;;;;5050950;28;20184;-84
2023/05/05 08:03:02;;;;;;;1.77;1.37;;;18.60;80.30;;;;;;5058739;28;20207;-85
2023/05/05 08:05:28;;;;;;;2.90;1.97;;;18.70;82.00;;;;;;5060845;28;20629;-84
2023/05/05 08:07:53;;;;;;;2.10;1.90;;;18.80;80.40;;;;;;5051376;28;20686;-84
2023/05/05 08:10:20;;;;;;;1.70;1.60;;;18.90;79.60;;;;;;5052530;28;20253;-84
2023/05/05 08:12:46;;;;;;;2.30;1.50;;;19.00;79.40;;;;;;5067660;28;20215;-84
2023/05/05 08:15:11;;;;;;;2.03;1.57;;;19.20;79.70;;;;;;5051718;28;20896;-85
2023/05/05 08:17:44;;;;;;;2.80;2.60;;;19.40;79.40;;;;;;5051289;28;20183;-84
2023/05/05 08:20:10;;;;;;;2.83;2.63;;;19.50;79.80;;;;;;5051673;28;20267;-85
2023/05/05 08:22:36;;;;;;;2.23;2.03;;;19.60;78.00;;;;;;5051251;28;20533;-84
2023/05/05 08:25:01;;;;;;;1.17;1.07;;;19.70;79.70;;;;;;5052705;28;20742;-86
2023/05/05 08:27:27;;;;;;;1.63;1.60;;;19.80;78.40;;;;;;5059609;28;20215;-85
2023/05/05 08:29:52;;;;;;;6.95;1.75;;;20.00;77.60;;;;;;5051828;28;20573;-85
2023/05/05 08:32:18;;;;;;;5.40;2.30;;;20.00;75.10;;;;;;5050835;28;20256;-86
2023/05/05 08:34:43;;;;;;;2.23;2.00;;;20.10;75.80;;;;;;5057968;28;20257;-86
2023/05/05 08:37:08;;;;;;;30.33;3.00;;;20.20;74.80;;;;;;5046793;28;20218;-84
2023/05/05 08:39:34;;;;;;;2.13;1.33;;;20.40;74.40;;;;;;5051688;28;20650;-84
2023/05/05 08:41:59;;;;;;;3.00;2.27;;;20.60;74.80;;;;;;5057585;28;20219;-85
2023/05/05 08:44:26;;;;;;;1.77;1.70;;;20.70;74.90;;;;;;5053520;28;20192;-85
2023/05/05 08:46:52;;;;;;;1.77;1.70;;;20.90;75.40;;;;;;5051057;28;20207;-85
2023/05/05 08:49:18;;;;;;;2.37;1.63;;;20.90;76.20;;;;;;5051390;28;20453;-83
2023/05/05 08:51:45;;;;;;;4.03;3.00;;;21.10;78.00;;;;;;5051228;28;20891;-84
2023/05/05 08:54:18;;;;;;;1.13;1.10;;;21.30;78.80;;;;;;5051587;28;20789;-85
2023/05/05 08:56:45;;;;;;;2.20;1.93;;;21.50;77.20;;;;;;5063481;28;20426;-85
2023/05/05 08:59:13;;;;;;;2.50;2.30;;;21.50;75.80;;;;;;5055396;28;20417;-84
2023/05/05 09:01:40;;;;;;;1.33;1.27;;;21.40;75.80;;;;;;5070581;28;20443;-85
2023/05/05 09:04:07;;;;;;;1.60;1.50;;;21.30;76.40;;;;;;5055853;28;20418;-84
2023/05/05 09:06:34;;;;;;;2.67;1.70;;;21.30;76.60;;;;;;5052092;28;20462;-84
2023/05/05 09:09:00;;;;;;;3.43;2.23;;;21.40;76.30;;;;;;5050362;28;20477;-84
2023/05/05 09:11:26;;;;;;;1.87;1.27;;;21.60;75.30;;;;;;5050020;28;20459;-84
2023/05/05 09:13:52;;;;;;;2.50;2.10;;;21.70;75.70;;;;;;5058571;28;20230;-85
2023/05/05 09:16:17;;;;;;;2.20;2.00;;;21.70;75.70;;;;;;5049567;28;20422;-84
2023/05/05 09:18:44;;;;;;;3.70;2.00;;;21.80;76.80;;;;;;5049999;28;20271;-85
2023/05/05 09:21:21;;;;;;;2.10;1.50;;;21.90;77.00;;;;;;5049346;28;20183;-84
2023/05/05 09:24:09;;;;;;;2.30;1.47;;;21.80;77.80;;;;;;5042689;28;20510;-84
2023/05/05 09:26:40;;;;;;;2.00;1.90;;;21.70;76.80;;;;;;5050135;28;20458;-84
2023/05/05 09:29:06;;;;;;;1.77;1.67;;;21.70;74.40;;;;;;5050042;28;20421;-84
2023/05/05 09:31:32;;;;;;;25.07;2.30;;;21.60;73.70;;;;;;5051088;28;20421;-85
2023/05/05 09:34:03;;;;;;;2.30;1.50;;;21.80;74.90;;;;;;5051787;28;20259;-84
2023/05/05 09:36:47;;;;;;;3.03;1.90;;;21.90;71.70;;;;;;5052226;28;20422;-84
2023/05/05 09:39:18;;;;;;;1.80;1.60;;;22.00;72.00;;;;;;5051845;28;20409;-84
2023/05/05 09:41:43;;;;;;;2.27;2.10;;;22.10;72.00;;;;;;5058092;28;20473;-83
2023/05/05 09:44:11;;;;;;;1.53;1.40;;;22.20;72.70;;;;;;5050419;28;20801;-84
2023/05/05 09:46:37;;;;;;;1.80;1.70;;;22.30;72.50;;;;;;5052007;28;20677;-84
2023/05/05 09:49:17;;;;;;;3.17;2.03;;;22.40;71.70;;;;;;5055865;28;20475;-85
2023/05/05 09:51:43;;;;;;;1.80;1.73;;;22.40;73.60;;;;;;5049856;28;20630;-84
2023/05/05 09:54:28;;;;;;;1.90;1.83;;;22.40;74.80;;;;;;5050907;28;20420;-85
2023/05/05 09:56:55;;;;;;;3.47;2.63;;;22.50;76.50;;;;;;5043141;28;20440;-85
2023/05/05 09:59:21;;;;;;;5.67;1.83;;;22.50;76.60;;;;;;5059063;28;20467;-83
2023/05/05 10:01:47;;;;;;;4.20;1.50;;;22.60;76.80;;;;;;5061798;28;20475;-85
2023/05/05 10:04:30;;;;;;;14.93;2.47;;;22.60;76.60;;;;;;5061513;28;20421;-85
2023/05/05 10:06:56;;;;;;;1.57;1.50;;;22.50;76.20;;;;;;5050646;28;20541;-84
2023/05/05 10:09:26;;;;;;;15.43;2.40;;;22.30;77.50;;;;;;5049774;28;20429;-84
2023/05/05 10:11:52;;;;;;;3.40;1.83;;;22.40;78.90;;;;;;5069744;28;20505;-85
2023/05/05 10:14:18;;;;;;;4.97;2.87;;;22.40;78.20;;;;;;5060625;28;20857;-85
2023/05/05 10:16:47;;;;;;;2.07;1.63;;;22.50;77.90;;;;;;5052337;28;20927;-85
2023/05/05 10:19:15;;;;;;;3.10;1.73;;;22.60;77.00;;;;;;5070784;28;20429;-84
2023/05/05 10:21:45;;;;;;;2.00;1.90;;;22.50;77.20;;;;;;5051018;28;20603;-84
2023/05/05 10:24:25;;;;;;;2.90;1.97;;;22.50;77.80;;;;;;5057686;28;20418;-85
2023/05/05 10:26:52;;;;;;;1.80;1.80;;;22.70;77.20;;;;;;5045755;28;20476;-85
2023/05/05 10:29:33;;;;;;;2.57;2.40;;;22.60;76.70;;;;;;5053191;28;20426;-84
2023/05/05 10:32:05;;;;;;;1.70;1.60;;;22.50;75.80;;;;;;5049118;28;20466;-84
2023/05/05 10:34:48;;;;;;;2.30;2.20;;;22.10;76.00;;;;;;5058483;28;20841;-84
2023/05/05 10:37:17;;;;;;;1.73;1.63;;;22.00;77.90;;;;;;5059032;28;20440;-84
2023/05/05 10:39:44;;;;;;;2.33;2.13;;;22.10;78.40;;;;;;5060306;28;20435;-84
2023/05/05 10:42:12;;;;;;;10.97;2.30;;;22.20;78.80;;;;;;5053434;28;20446;-84
2023/05/05 10:44:37;;;;;;;2.43;1.77;;;22.20;77.90;;;;;;5048779;28;20422;-84
2023/05/05 10:47:04;;;;;;;2.33;1.63;;;22.20;77.80;;;;;;5049737;28;20606;-84
2023/05/05 10:49:41;;;;;;;2.47;2.37;;;22.40;77.80;;;;;;5056905;28;20690;-84
2023/05/05 10:52:22;;;;;;;5.27;3.10;;;22.50;75.90;;;;;;5049738;28;20442;-84
2023/05/05 10:55:00;;;;;;;4.93;2.20;;;22.60;76.00;;;;;;5042256;28;20904;-83
2023/05/05 10:57:28;;;;;;;1.53;1.50;;;22.60;75.50;;;;;;5067977;28;20428;-83
2023/05/05 10:59:53;;;;;;;1.87;1.77;;;22.60;76.30;;;;;;5057354;28;20426;-84
2023/05/05 11:02:23;;;;;;;2.93;2.50;;;22.70;75.60;;;;;;5048701;28;20487;-84
2023/05/05 11:05:13;;;;;;;2.50;1.97;;;22.70;74.70;;;;;;5041691;28;20208;-84
2023/05/05 11:07:38;;;;;;;4.20;1.87;;;22.80;76.20;;;;;;5057143;28;20474;-84
2023/05/05 11:10:06;;;;;;;3.73;1.53;;;22.90;74.10;;;;;;5048857;28;20932;-84
2023/05/05 11:12:52;;;;;;;14.20;2.47;;;22.80;74.40;;;;;;5048075;28;20462;-84
2023/05/05 11:15:27;;;;;;;3.17;2.00;;;22.70;74.20;;;;;;5063884;28;20516;-84
2023/05/05 11:17:54;;;;;;;5.07;2.40;;;22.60;75.30;;;;;;5063139;28;20431;-84
2023/05/05 11:20:35;;;;;;;2.40;1.63;;;22.80;76.40;;;;;;5056381;28;20514;-84
2023/05/05 11:23:01;;;;;;;2.60;2.20;;;22.90;74.80;;;;;;5052135;28;20442;-84
2023/05/05 11:25:35;;;;;;;5.23;1.93;;;23.10;75.80;;;;;;5052137;28;20435;-83
2023/05/05 11:28:16;;;;;;;1.97;1.87;;;23.10;74.20;;;;;;5052075;28;20300;-84
2023/05/05 11:30:53;;;;;;;2.87;1.90;;;23.30;74.20;;;;;;5054429;28;20912;-84
2023/05/05 11:33:33;;;;;;;3.30;2.80;;;23.40;73.90;;;;;;5055949;28;20809;-84
2023/05/05 11:36:00;;;;;;;4.00;2.67;;;23.60;73.00;;;;;;5053048;28;20491;-83
2023/05/05 11:38:40;;;;;;;2.63;2.43;;;23.70;72.90;;;;;;5061013;28;20430;-84
2023/05/05 11:41:29;;;;;;;1.87;1.87;;;23.70;73.10;;;;;;5056351;28;20429;-83
2023/05/05 11:44:11;;;;;;;2.67;2.10;;;23.70;73.40;;;;;;5046228;28;20526;-84
2023/05/05 11:46:39;;;;;;;2.37;2.07;;;23.70;73.00;;;;;;5051573;28;20576;-84
2023/05/05 11:49:06;;;;;;;3.23;1.93;;;23.80;72.50;;;;;;5051386;28;20433;-84
2023/05/05 11:51:32;;;;;;;4.53;2.30;;;23.80;73.00;;;;;;5069271;28;20449;-83
2023/05/05 11:53:57;;;;;;;4.67;1.90;;;24.00;73.00;;;;;;5058879;28;20457;-83
2023/05/05 11:56:23;;;;;;;3.47;2.10;;;24.00;70.80;;;;;;5053406;28;20829;-83
2023/05/05 11:59:09;;;;;;;1.30;1.27;;;24.00;70.60;;;;;;5051766;28;20188;-84
2023/05/05 12:01:40;;;;;;;14.43;2.07;;;23.90;71.50;;;;;;5051660;28;20207;-83
2023/05/05 12:04:06;;;;;;;1.37;1.10;;;23.80;71.40;;;;;;5053555;28;20630;-84
2023/05/05 12:06:32;;;;;;;2.33;1.73;;;23.60;71.30;;;;;;5051437;28;20990;-84
2023/05/05 12:08:59;;;;;;;1.83;1.77;;;23.40;70.60;;;;;;5051467;28;20418;-84
2023/05/05 12:11:25;;;;;;;6.73;1.43;;;23.30;71.80;;;;;;5052166;28;20837;-82
2023/05/05 12:14:06;;;;;;;9.43;1.70;;;23.40;71.20;;;;;;5045268;28;20425;-84
2023/05/05 12:16:31;;;;;;;1.60;1.30;;;23.40;71.40;;;;;;5041448;28;20211;-84
2023/05/05 12:19:05;;;;;;;2.20;2.00;;;23.50;69.90;;;;;;5041572;28;20938;-84
2023/05/05 12:21:31;;;;;;;1.93;1.57;;;23.40;70.10;;;;;;5041015;28;20228;-83
2023/05/05 12:23:57;;;;;;;1.87;1.77;;;23.50;72.30;;;;;;5047147;28;20452;-84
2023/05/05 12:26:32;;;;;;;3.00;2.20;;;23.70;72.00;;;;;;5045933;28;20218;-85
2023/05/05 12:28:58;;;;;;;2.20;2.00;;;23.70;70.90;;;;;;5046535;28;20421;-84
2023/05/05 12:31:40;;;;;;;1.63;1.53;;;23.50;71.50;;;;;;5052320;28;20920;-84
2023/05/05 12:34:08;;;;;;;2.23;1.57;;;23.50;72.10;;;;;;5042182;28;20429;-84
2023/05/05 12:36:35;;;;;;;6.80;1.80;;;23.40;71.50;;;;;;5057979;28;20936;-84
2023/05/05 12:39:01;;;;;;;5.40;2.43;;;23.40;72.40;;;;;;5032435;28;20430;-84
2023/05/05 12:41:27;;;;;;;1.60;1.40;;;23.40;72.20;;;;;;5047236;28;20802;-84
2023/05/05 12:43:57;;;;;;;2.90;2.23;;;23.30;72.90;;;;;;5046557;28;20195;-84
2023/05/05 12:46:23;;;;;;;3.00;2.43;;;23.20;72.50;;;;;;5049916;28;20466;-84
2023/05/05 12:49:05;;;;;;;3.10;1.83;;;23.20;73.00;;;;;;5049173;28;20445;-84
2023/05/05 12:51:35;;;;;;;1.67;1.63;;;23.10;73.40;;;;;;5041768;28;20439;-84
2023/05/05 12:54:08;;;;;;;2.90;1.50;;;23.20;73.40;;;;;;5048171;28;20959;-84
2023/05/05 12:56:42;;;;;;;2.40;1.47;;;23.20;73.60;;;;;;5051824;28;20442;-84